Cooper, Iowa
Current Conditions -  °F | °C
As of 8:15 PM on Friday 28 Nov 2014 (Local Time) from KPRO Reporting Station
Clear Clear  
Wind Chill: -4°   Ceiling: Unl
Heat Index:   Visibility: 10mi
Dew Point: -1°   Wind: 9mph
Humidity: 92%   Direction: 100°E
Pressure: 29.7"   Gusts: NA
Location:  41.92°N, 94.35°W
Report Text: KPRO 290215Z AUTO 10008KT 10SM CLR 00/M01 A2970 RMK AO2 T00001011
Loading
Personal Weather Stations






























Interactive Weather Map New forecast layout! Learn more

10-Day Weather Forecast

Advertisements
Track Severe Weather on mobile